Webcam

2020/07/15 03:20 EBBR 150320Z 28002KT CAVOK 14/12 Q1014 NOSIG

Webcam

--- Refresh now ---